»·PEaware :: MNL886 KSFO-CYVR

MNL886 :: KSFO-CYVR

FLIGHT INFORMATION

Flight Status: Arrived
Operator: Unknown
More flights by this operator :: More flights under this callsign
Pilot: Josef V. (384)
Aircraft: BOEING 727-200
(B722)
More flights by this aircraft type
Origin: KSFO San Francisco Intl
United States
Destination: CYVR Vancouver Intl
Canada
More flights between these airports :: More routes between these airports
Route: +SFO8 RBL BTG J1 SEA PAE GRIZZ3
File this flight plan on PilotEdge
Remarks: / H-SDGHIWRZ / S REG / CJESS PER / C NAV / RNP10 RNVD1E2A1
Altitude:
(Current/Filed)
33,000ft
Speed:
(Current/Filed)
560kts
Departed: 15-Jun-12 03:54 PM
Arrived: 15-Jun-12 05:35 PM
Distance/Time
Traveled:
695nm/1:40
Distance/Time
To Go:
Arrived

Flight Plot

Page will automatically refresh every two minutes.

Flight plan parsing failed; only flown route is shown


Map Options




Map Legend


Flown Route
Filed Route
Departure Airport
Arrival Airport
Navaid (VOR, NDB)
Fix

Horizontal Profiles

Position Reports

Time Latitude Longitude Heading Altitude Ground
Speed
15-Jun-12 15:24 37.635674 -122.387085 58 24ft 0kts
15-Jun-12 15:25 37.635674 -122.387085 58 24ft 0kts
15-Jun-12 15:27 37.635674 -122.387085 58 24ft 0kts
15-Jun-12 15:28 37.635674 -122.387085 58 24ft 0kts
15-Jun-12 15:33 37.636736 -122.389001 148 24ft 0kts
15-Jun-12 15:34 37.636736 -122.389001 148 24ft 0kts
15-Jun-12 15:35 37.636736 -122.389001 148 24ft 0kts
15-Jun-12 15:36 37.636736 -122.389001 148 24ft 0kts
15-Jun-12 15:37 37.636736 -122.389001 148 24ft 0kts
15-Jun-12 15:38 37.636736 -122.389001 148 24ft 0kts
15-Jun-12 15:39 37.636736 -122.389001 148 24ft 0kts
15-Jun-12 15:40 37.635030 -122.388108 210 24ft 8kts
15-Jun-12 15:41 37.634068 -122.390288 243 25ft 6kts
15-Jun-12 15:42 37.632274 -122.391305 169 24ft 7kts
15-Jun-12 15:43 37.630838 -122.392535 160 25ft 7kts
15-Jun-12 15:44 37.629661 -122.391764 135 25ft 7kts
15-Jun-12 15:45 37.627259 -122.386202 117 24ft 22kts
15-Jun-12 15:46 37.624133 -122.378717 117 25ft 23kts
15-Jun-12 15:47 37.621917 -122.373473 120 24ft 17kts
15-Jun-12 15:48 37.619849 -122.368624 118 25ft 13kts
15-Jun-12 15:49 37.617072 -122.362043 117 25ft 27kts
15-Jun-12 15:50 37.614999 -122.357126 127 25ft 7kts
15-Jun-12 15:51 37.613754 -122.357709 293 25ft 4kts
15-Jun-12 15:52 37.613999 -122.358294 297 25ft 23kts
15-Jun-12 15:53 37.628355 -122.392380 296 688ft 143kts
15-Jun-12 15:54 37.646836 -122.437424 296 1992ft 153kts
15-Jun-12 15:55 37.679270 -122.480056 3 3150ft 222kts
15-Jun-12 15:56 37.747704 -122.468294 1 5391ft 265kts
15-Jun-12 15:57 37.821971 -122.459862 1 8180ft 273kts
15-Jun-12 15:58 37.899039 -122.452194 3 10251ft 296kts
15-Jun-12 15:59 37.990776 -122.443204 3 11368ft 351kts
15-Jun-12 16:00 38.072811 -122.435282 3 13312ft 359kts
15-Jun-12 16:01 38.174706 -122.425363 2 15135ft 378kts
15-Jun-12 16:02 38.283417 -122.415097 2 16673ft 401kts
15-Jun-12 16:03 38.395567 -122.404285 2 18424ft 411kts
15-Jun-12 16:04 38.510638 -122.393179 2 20009ft 422kts
15-Jun-12 16:05 38.627895 -122.381936 4 21317ft 434kts
15-Jun-12 16:06 38.749149 -122.370163 5 22734ft 440kts
15-Jun-12 16:07 38.871742 -122.358129 6 24068ft 443kts
15-Jun-12 16:08 38.996729 -122.345757 5 24794ft 460kts
15-Jun-12 16:09 39.125958 -122.333090 4 25724ft 469kts
15-Jun-12 16:10 39.257277 -122.320017 2 26753ft 473kts
15-Jun-12 16:11 39.385768 -122.307489 2 28514ft 457kts
15-Jun-12 16:12 39.511967 -122.294986 2 29555ft 454kts
15-Jun-12 16:13 39.636794 -122.282611 3 30477ft 451kts
15-Jun-12 16:14 39.762349 -122.269956 3 31101ft 454kts
15-Jun-12 16:15 39.889442 -122.257140 2 31537ft 460kts
15-Jun-12 16:16 40.017771 -122.244271 2 32019ft 465kts
15-Jun-12 16:17 40.147293 -122.238262 356 32526ft 465kts
15-Jun-12 16:18 40.277292 -122.246098 356 32818ft 470kts
15-Jun-12 16:19 40.409141 -122.253693 355 32842ft 481kts
15-Jun-12 16:20 40.543991 -122.261603 355 32850ft 492kts
15-Jun-12 16:21 40.678239 -122.269486 356 32854ft 502kts
15-Jun-12 16:22 40.819297 -122.277724 356 32852ft 511kts
15-Jun-12 16:23 40.962497 -122.286138 356 32850ft 518kts
15-Jun-12 16:24 41.105366 -122.294636 357 32845ft 513kts
15-Jun-12 16:25 41.247289 -122.302909 356 33019ft 508kts
15-Jun-12 16:26 41.388105 -122.311317 355 33104ft 507kts
15-Jun-12 16:27 41.528936 -122.319827 355 33105ft 507kts
15-Jun-12 16:28 41.668874 -122.328276 355 33111ft 508kts
15-Jun-12 16:29 41.810314 -122.336788 355 33108ft 508kts
15-Jun-12 16:30 41.951369 -122.345295 354 33110ft 509kts
15-Jun-12 16:31 42.091599 -122.353945 355 33109ft 510kts
15-Jun-12 16:32 42.232851 -122.362668 356 33116ft 509kts
15-Jun-12 16:33 42.350777 -122.369769 355 33113ft 510kts
15-Jun-12 16:34 42.515838 -122.380040 356 33123ft 514kts
15-Jun-12 16:35 42.633285 -122.387224 356 33107ft 518kts
15-Jun-12 16:36 42.778022 -122.396310 356 33102ft 521kts
15-Jun-12 16:37 42.922504 -122.405373 356 33099ft 523kts
15-Jun-12 16:38 43.067887 -122.414500 356 33098ft 524kts
15-Jun-12 16:39 43.214013 -122.423711 356 33104ft 525kts
15-Jun-12 16:40 43.359812 -122.433025 356 33144ft 522kts
15-Jun-12 16:41 43.504040 -122.442299 357 33143ft 518kts
15-Jun-12 16:42 43.647288 -122.451459 358 33173ft 516kts
15-Jun-12 16:43 43.790452 -122.460608 358 33188ft 517kts
15-Jun-12 16:44 43.934080 -122.469885 358 33188ft 517kts
15-Jun-12 16:45 44.077794 -122.479259 358 33186ft 517kts
15-Jun-12 16:46 44.221802 -122.488665 358 33187ft 518kts
15-Jun-12 16:47 44.365965 -122.498078 358 33189ft 518kts
15-Jun-12 16:48 44.509928 -122.507535 357 33195ft 518kts
15-Jun-12 16:49 44.652550 -122.517061 357 33199ft 518kts
15-Jun-12 16:50 44.796228 -122.526621 357 33202ft 518kts
15-Jun-12 16:51 44.940367 -122.536309 356 33206ft 519kts
15-Jun-12 16:52 45.083537 -122.545940 356 33207ft 520kts
15-Jun-12 16:53 45.227223 -122.555667 356 33203ft 521kts
15-Jun-12 16:54 45.371529 -122.565462 356 33201ft 522kts
15-Jun-12 16:55 45.516395 -122.575394 356 33203ft 523kts
15-Jun-12 16:56 45.660661 -122.585385 356 33203ft 523kts
15-Jun-12 16:57 45.804979 -122.583158 6 33189ft 521kts
15-Jun-12 16:58 45.949729 -122.558951 7 33200ft 523kts
15-Jun-12 16:59 46.094249 -122.535190 6 33206ft 525kts
15-Jun-12 17:00 46.240086 -122.511242 6 33208ft 527kts
15-Jun-12 17:01 46.385397 -122.487202 6 33208ft 528kts
15-Jun-12 17:02 46.531192 -122.462902 6 33232ft 526kts
15-Jun-12 17:03 46.674531 -122.438934 5 33243ft 521kts
15-Jun-12 17:04 46.818248 -122.414763 5 33250ft 519kts
15-Jun-12 17:05 46.961629 -122.390350 5 33257ft 518kts
15-Jun-12 17:06 47.104513 -122.366041 5 33257ft 517kts
15-Jun-12 17:07 47.246817 -122.341728 5 33255ft 517kts
15-Jun-12 17:08 47.389829 -122.317161 5 33253ft 518kts
15-Jun-12 17:09 47.533485 -122.302463 1 33267ft 517kts
15-Jun-12 17:10 47.673364 -122.293542 1 33199ft 490kts
15-Jun-12 17:11 47.806856 -122.284741 1 31203ft 474kts
15-Jun-12 17:12 47.936359 -122.280398 346 29034ft 459kts
15-Jun-12 17:13 48.059002 -122.317256 347 27171ft 443kts
15-Jun-12 17:14 48.177574 -122.351972 348 25344ft 428kts
15-Jun-12 17:15 48.273670 -122.379878 348 23829ft 416kts
15-Jun-12 17:17 48.494629 -122.444829 347 20226ft 393kts
15-Jun-12 17:18 48.598065 -122.475531 347 16347ft 375kts
15-Jun-12 17:19 48.697852 -122.505986 340 13165ft 359kts
15-Jun-12 17:20 48.763591 -122.611489 307 10182ft 346kts
15-Jun-12 17:21 48.821879 -122.725056 307 8817ft 335kts
15-Jun-12 17:22 48.877234 -122.833681 308 8245ft 309kts
15-Jun-12 17:23 48.926197 -122.930182 308 8249ft 278kts
15-Jun-12 17:24 48.979469 -122.999608 1 8000ft 244kts
15-Jun-12 17:25 49.046754 -122.998630 6 6777ft 242kts
15-Jun-12 17:26 49.068858 -122.918852 88 5916ft 216kts
15-Jun-12 17:27 49.100104 -122.865770 344 4387ft 209kts
15-Jun-12 17:28 49.155685 -122.888729 343 3270ft 194kts
15-Jun-12 17:29 49.167932 -122.947676 247 2700ft 163kts
15-Jun-12 17:30 49.162430 -123.004764 296 1994ft 145kts
15-Jun-12 17:31 49.172985 -123.061046 280 1516ft 134kts
15-Jun-12 17:32 49.179641 -123.115936 279 697ft 134kts
15-Jun-12 17:33 49.185810 -123.170367 279 26ft 110kts
15-Jun-12 17:34 49.187917 -123.181101 7 26ft 12kts
15-Jun-12 17:35 49.188664 -123.177025 99 26ft 23kts
15-Jun-12 17:36 49.187236 -123.164518 100 26ft 13kts
15-Jun-12 17:37 49.186106 -123.161436 49 26ft 3kts
15-Jun-12 17:38 49.186286 -123.158973 94 26ft 8kts
15-Jun-12 17:39 49.186534 -123.156107 8 26ft 2kts

Navigation Log

Ident Type
Flight plan parsing failed, navigation log unavailable